Terminal Aerodrome Forecast
Issued by NWS Brownsville, TX

Home | Current Version | Previous Version | Text Only | Print | Product List | Glossary On
Versions: 1 2 3 4 5 6 7 8 9 10 11 12 13 14 15 16 17 18 19 20 21 22 23 24 25
000
FTUS44 KBRO 302300
TAFBRO
TAF
KBRO 302324Z 3100/3124 10010KT P6SM SCT030 BKN100
     FM310700 13008KT P6SM VCSH SCT025 BKN050
     FM311400 14012KT P6SM SCT020 BKN050 PROB30 3114/3118 3SM TSRA
      BKN015CB
     FM311800 13012KT P6SM SCT030 BKN100=

USA.gov is the U.S. government's official web portal to all federal, state and local government web resources and services.